createdAt,value
2023-04-12T00:01:41.581Z,99924.59
2023-04-12T00:04:10.446Z,99916.25
2023-04-12T00:06:40.367Z,99918.22
2023-04-12T00:09:10.283Z,99925.59
2023-04-12T00:11:38.439Z,99922.63
2023-04-12T00:14:06.408Z,99920.25
2023-04-12T00:16:36.234Z,99902.91
2023-04-12T00:19:06.634Z,99902.03
2023-04-12T00:21:34.728Z,99915.31
2023-04-12T00:24:02.708Z,99900.56
2023-04-12T00:26:32.412Z,99909.19
2023-04-12T00:29:00.909Z,99903.25
2023-04-12T00:31:30.024Z,99897.09
2023-04-12T00:33:58.785Z,99887.63
2023-04-12T00:36:29.118Z,99893.06
2023-04-12T00:38:57.444Z,99888.94
2023-04-12T00:41:27.568Z,99890.66
2023-04-12T00:43:56.169Z,99887.53
2023-04-12T00:46:25.389Z,99880.72
2023-04-12T00:48:54.068Z,99868.81
2023-04-12T00:51:22.780Z,99882.88
2023-04-12T00:53:53.672Z,99862.06
2023-04-12T00:56:23.716Z,99868.00
2023-04-12T00:58:53.978Z,99852.38
2023-04-12T01:01:22.747Z,99858.06
2023-04-12T01:03:53.351Z,99841.84
2023-04-12T01:06:29.793Z,99848.53
2023-04-12T01:09:21.803Z,99837.84
2023-04-12T01:12:02.345Z,99837.84
2023-04-12T01:14:44.761Z,99819.31
2023-04-12T01:17:21.127Z,99825.34
2023-04-12T01:20:14.010Z,99825.88
2023-04-12T01:23:03.016Z,99824.84
2023-04-12T01:26:12.840Z,99820.63
2023-04-12T01:28:45.883Z,99831.56
2023-04-12T01:31:15.033Z,99825.59
2023-04-12T01:33:45.493Z,99797.50
2023-04-12T01:36:21.652Z,99794.97
2023-04-12T01:38:50.924Z,99783.09
2023-04-12T01:41:19.201Z,99786.19
2023-04-12T01:43:50.120Z,99770.50
2023-04-12T01:46:24.012Z,99779.03
2023-04-12T01:49:00.152Z,99769.22
2023-04-12T01:51:52.293Z,99777.06
2023-04-12T01:54:29.457Z,99757.69
2023-04-12T01:57:04.056Z,99753.03
2023-04-12T01:59:39.283Z,99748.56
2023-04-12T02:02:10.681Z,99734.50
2023-04-12T02:04:40.186Z,99745.63
2023-04-12T02:07:09.728Z,99728.19
2023-04-12T02:09:39.410Z,99707.69
2023-04-12T02:12:09.890Z,99718.91
2023-04-12T02:14:38.515Z,99727.78
2023-04-12T02:17:09.211Z,99708.66
2023-04-12T02:19:38.218Z,99708.81
2023-04-12T02:22:08.425Z,99712.06
2023-04-12T02:24:36.501Z,99702.34
2023-04-12T02:27:06.147Z,99692.28
2023-04-12T02:29:35.195Z,99700.81
2023-04-12T02:32:04.708Z,99686.09
2023-04-12T02:34:36.781Z,99665.13
2023-04-12T02:37:29.319Z,99689.50
2023-04-12T02:39:59.113Z,99685.22
2023-04-12T02:42:27.316Z,99677.38
2023-04-12T02:44:57.124Z,99674.53
2023-04-12T02:47:30.551Z,99656.09
2023-04-12T02:50:02.704Z,99642.06
2023-04-12T02:52:33.248Z,99656.81
2023-04-12T02:55:08.369Z,99641.81
2023-04-12T02:57:36.274Z,99648.00
2023-04-12T03:00:12.019Z,99636.63
2023-04-12T03:02:46.247Z,99611.66
2023-04-12T03:05:23.546Z,99619.41
2023-04-12T03:07:52.602Z,99610.03
2023-04-12T03:10:29.783Z,99601.44
2023-04-12T03:13:04.960Z,99605.81
2023-04-12T03:16:00.013Z,99595.50
2023-04-12T03:18:36.528Z,99589.38
2023-04-12T03:21:05.777Z,99598.06
2023-04-12T03:23:34.169Z,99572.69
2023-04-12T03:26:14.628Z,99583.53
2023-04-12T03:29:09.627Z,99578.03
2023-04-12T03:31:41.573Z,99570.28
2023-04-12T03:34:10.822Z,99571.41
2023-04-12T03:36:43.849Z,99551.16
2023-04-12T03:39:20.249Z,99566.91
2023-04-12T03:41:53.473Z,99548.69
2023-04-12T03:44:26.837Z,99547.53
2023-04-12T03:46:58.502Z,99537.41
2023-04-12T03:49:30.302Z,99543.50
2023-04-12T03:51:58.888Z,99540.16
2023-04-12T03:54:27.622Z,99520.97
2023-04-12T03:57:00.414Z,99522.09
2023-04-12T03:59:36.196Z,99514.09
2023-04-12T04:02:07.084Z,99508.66
2023-04-12T04:04:39.305Z,99504.53
2023-04-12T04:07:12.007Z,99485.25
2023-04-12T04:09:43.810Z,99480.63
2023-04-12T04:12:13.249Z,99484.06
2023-04-12T04:14:46.050Z,99480.84
2023-04-12T04:17:21.199Z,99467.19
2023-04-12T04:19:51.310Z,99459.44
2023-04-12T04:22:21.665Z,99462.88
2023-04-12T04:24:52.381Z,99472.31
2023-04-12T04:27:22.304Z,99462.00
2023-04-12T04:29:52.908Z,99457.22
2023-04-12T04:32:21.559Z,99459.53
2023-04-12T04:34:52.626Z,99456.75
2023-04-12T04:37:22.735Z,99443.78
2023-04-12T04:39:52.814Z,99440.31
2023-04-12T04:42:21.679Z,99426.34
2023-04-12T04:45:02.765Z,99435.00
2023-04-12T04:47:38.628Z,99433.47
2023-04-12T04:50:07.742Z,99433.81
2023-04-12T04:52:38.430Z,99433.56
2023-04-12T04:55:11.636Z,99420.41
2023-04-12T04:57:45.430Z,99427.81
2023-04-12T05:00:16.448Z,99424.03
2023-04-12T05:02:55.566Z,99429.63
2023-04-12T05:05:27.189Z,99425.63
2023-04-12T05:08:05.677Z,99427.38
2023-04-12T05:10:36.134Z,99424.13
2023-04-12T05:13:04.572Z,99429.00
2023-04-12T05:15:33.294Z,99414.91
2023-04-12T05:18:02.238Z,99420.91
2023-04-12T05:20:32.012Z,99399.44
2023-04-12T05:23:01.267Z,99405.16
2023-04-12T05:25:33.460Z,99403.53
2023-04-12T05:28:14.134Z,99406.81
2023-04-12T05:30:44.875Z,99397.69
2023-04-12T05:33:17.786Z,99381.00
2023-04-12T05:35:50.177Z,99363.13
2023-04-12T05:38:18.362Z,99373.31
2023-04-12T05:40:50.522Z,99344.63
2023-04-12T05:43:23.741Z,99348.81
2023-04-12T05:45:52.011Z,99344.25
2023-04-12T05:48:23.151Z,99341.16
2023-04-12T05:50:55.433Z,99311.66
2023-04-12T05:53:24.361Z,99324.56
2023-04-12T05:55:56.178Z,99316.81
2023-04-12T05:58:24.959Z,99314.31
2023-04-12T06:00:56.225Z,99309.25
2023-04-12T06:03:25.770Z,99293.47
2023-04-12T06:05:57.258Z,99297.56
2023-04-12T06:08:25.800Z,99299.00
2023-04-12T06:10:54.185Z,99293.09
2023-04-12T06:13:25.735Z,99279.44
2023-04-12T06:15:54.297Z,99299.09
2023-04-12T06:18:24.009Z,99278.13
2023-04-12T06:20:53.248Z,99277.78
2023-04-12T06:23:21.389Z,99273.75
2023-04-12T06:25:51.240Z,99272.88
2023-04-12T06:28:24.238Z,99261.78
2023-04-12T06:30:57.582Z,99254.94
2023-04-12T06:33:28.613Z,99267.88
2023-04-12T06:35:56.889Z,99257.69
2023-04-12T06:38:27.616Z,99245.19
2023-04-12T06:40:56.119Z,99236.44
2023-04-12T06:43:24.204Z,99238.25
2023-04-12T06:45:53.829Z,99223.78
2023-04-12T06:48:26.122Z,99226.63
2023-04-12T06:50:54.177Z,99217.00
2023-04-12T06:53:22.923Z,99212.91
2023-04-12T06:55:51.156Z,99199.19
2023-04-12T06:58:19.703Z,99214.72
2023-04-12T07:00:49.753Z,99202.44
2023-04-12T07:03:24.310Z,99209.50
2023-04-12T07:05:56.782Z,99206.41
2023-04-12T07:08:30.110Z,99202.69
2023-04-12T07:11:00.649Z,99197.63
2023-04-12T07:13:36.806Z,99186.03
2023-04-12T07:16:07.971Z,99176.94
2023-04-12T07:18:36.698Z,99178.75
2023-04-12T07:21:05.443Z,99175.03
2023-04-12T07:23:33.375Z,99172.44
2023-04-12T07:26:02.770Z,99157.41
2023-04-12T07:28:31.120Z,99153.13
2023-04-12T07:31:02.915Z,99148.25
2023-04-12T07:33:32.118Z,99148.44
2023-04-12T07:36:01.136Z,99120.44
2023-04-12T07:38:30.710Z,99115.84
2023-04-12T07:41:06.258Z,99122.50
2023-04-12T07:43:34.574Z,99116.75
2023-04-12T07:46:10.183Z,99107.78
2023-04-12T07:48:38.436Z,99096.44
2023-04-12T07:51:08.680Z,99095.75
2023-04-12T07:53:38.026Z,99100.47
2023-04-12T07:56:07.895Z,99097.91
2023-04-12T07:58:35.913Z,99099.03
2023-04-12T08:01:04.058Z,99098.75
2023-04-12T08:03:33.281Z,99103.97
2023-04-12T08:06:01.474Z,99100.38
2023-04-12T08:08:30.495Z,99104.88
2023-04-12T08:10:59.026Z,99098.59
2023-04-12T08:13:27.188Z,99089.41
2023-04-12T08:15:55.339Z,99083.75
2023-04-12T08:18:25.814Z,99085.88
2023-04-12T08:20:54.217Z,99082.88
2023-04-12T08:23:25.927Z,99081.59
2023-04-12T08:26:03.699Z,99082.59
2023-04-12T08:28:34.209Z,99078.63
2023-04-12T08:31:03.576Z,99064.81
2023-04-12T08:33:32.290Z,99068.88
2023-04-12T08:36:01.125Z,99060.63
2023-04-12T08:41:06.748Z,99072.19
2023-04-12T08:43:36.772Z,99062.31
2023-04-12T08:46:05.713Z,99066.00
2023-04-12T08:48:35.179Z,99057.66
2023-04-12T08:51:04.170Z,99070.63
2023-04-12T08:53:34.071Z,99078.13
2023-04-12T08:56:18.732Z,99074.59
2023-04-12T09:32:06.340Z,99014.78
2023-04-12T09:34:37.220Z,99015.50
2023-04-12T09:37:18.344Z,99038.09
2023-04-12T09:39:46.897Z,99035.41
2023-04-12T09:42:25.622Z,99030.53
2023-04-12T09:45:04.425Z,99033.25
2023-04-12T09:47:40.975Z,99037.97
2023-04-12T09:50:11.881Z,99027.75
2023-04-12T09:52:42.330Z,99014.19
2023-04-12T09:55:11.389Z,99010.31
2023-04-12T09:57:42.873Z,99009.69
2023-04-12T10:00:18.083Z,99009.44
2023-04-12T10:02:51.800Z,99002.66
2023-04-12T10:05:23.401Z,99005.31
2023-04-12T10:07:55.233Z,98995.53
2023-04-12T10:10:24.129Z,98997.34
2023-04-12T10:12:53.606Z,98994.47
2023-04-12T10:15:22.128Z,98981.88
2023-04-12T10:17:57.552Z,98986.75
2023-04-12T10:20:29.577Z,98984.53
2023-04-12T10:22:59.457Z,98978.69
2023-04-12T10:25:32.646Z,98979.16
2023-04-12T10:28:19.194Z,98979.38
2023-04-12T10:30:50.294Z,98967.78
2023-04-12T10:33:25.337Z,98962.41
2023-04-12T10:36:13.053Z,98959.63
2023-04-12T10:39:11.272Z,98962.78
2023-04-12T10:42:17.940Z,98966.41
2023-04-12T10:44:48.386Z,98954.97
2023-04-12T10:47:17.401Z,98940.16
2023-04-12T10:50:25.905Z,98937.94
2023-04-12T10:53:12.608Z,98950.16
2023-04-12T10:55:42.543Z,98943.06
2023-04-12T10:58:48.814Z,98951.75
2023-04-12T11:01:18.543Z,98941.56
2023-04-12T11:04:05.254Z,98948.00
2023-04-12T11:06:56.779Z,98948.47
2023-04-12T11:09:43.324Z,98926.25
2023-04-12T11:12:16.584Z,98932.56
2023-04-12T11:14:49.047Z,98922.38
2023-04-12T11:17:24.293Z,98910.78
2023-04-12T11:19:55.934Z,98927.09
2023-04-12T11:22:27.296Z,98916.09
2023-04-12T11:25:00.694Z,98911.31
2023-04-12T11:27:30.364Z,98902.84
2023-04-12T11:30:16.755Z,98902.00
2023-04-12T11:33:04.831Z,98911.13
2023-04-12T11:35:53.117Z,98916.13
2023-04-12T11:38:41.636Z,98903.91
2023-04-12T11:41:29.912Z,98904.25
2023-04-12T11:43:59.626Z,98902.34
2023-04-12T11:46:36.031Z,98897.34
2023-04-12T11:49:05.115Z,98882.25
2023-04-12T11:51:33.721Z,98874.22
2023-04-12T11:54:01.658Z,98881.59
2023-04-12T11:56:29.834Z,98874.94
2023-04-12T11:58:57.968Z,98883.88
2023-04-12T12:01:27.765Z,98865.88
2023-04-12T12:03:56.249Z,98867.75
2023-04-12T12:06:24.999Z,98872.13
2023-04-12T12:08:56.180Z,98872.88
2023-04-12T12:11:26.493Z,98856.72
2023-04-12T12:14:00.278Z,98862.22
2023-04-12T12:16:31.125Z,98854.28
2023-04-12T12:19:05.518Z,98850.75
2023-04-12T12:21:34.666Z,98853.59
2023-04-12T12:24:04.430Z,98849.75
2023-04-12T12:26:32.340Z,98852.88
2023-04-12T12:29:00.761Z,98842.66
2023-04-12T12:31:29.113Z,98844.78
2023-04-12T12:33:59.408Z,98847.59
2023-04-12T12:36:38.603Z,98832.47
2023-04-12T12:39:15.373Z,98846.88
2023-04-12T12:41:43.217Z,98838.41
2023-04-12T12:44:12.232Z,98843.50
2023-04-12T12:46:53.341Z,98832.06
2023-04-12T12:49:23.223Z,98826.38
2023-04-12T12:51:52.008Z,98818.88
2023-04-12T12:54:36.029Z,98825.28
2023-04-12T12:57:26.213Z,98816.38
2023-04-12T13:00:17.383Z,98807.91
2023-04-12T13:03:05.659Z,98821.25
2023-04-12T13:05:33.765Z,98800.25
2023-04-12T13:08:01.535Z,98805.50
2023-04-12T13:10:29.665Z,98811.75
2023-04-12T13:12:58.688Z,98807.34
2023-04-12T13:15:26.563Z,98797.28
2023-04-12T13:17:55.307Z,98806.50
2023-04-12T13:20:23.568Z,98820.09
2023-04-12T13:22:54.811Z,98823.34
2023-04-12T13:25:22.595Z,98811.59
2023-04-12T13:27:51.536Z,98813.28
2023-04-12T13:30:20.381Z,98803.81
2023-04-12T13:32:48.509Z,98797.69
2023-04-12T13:35:16.281Z,98797.28
2023-04-12T13:37:44.200Z,98789.06
2023-04-12T13:40:13.403Z,98793.31
2023-04-12T13:42:41.542Z,98795.00
2023-04-12T13:45:12.036Z,98793.03
2023-04-12T13:47:39.783Z,98783.66
2023-04-12T13:50:08.451Z,98774.31
2023-04-12T13:52:36.251Z,98771.63
2023-04-12T13:55:08.065Z,98781.69
2023-04-12T13:57:36.239Z,98782.56
2023-04-12T14:00:07.256Z,98781.28
2023-04-12T14:02:35.046Z,98787.25
2023-04-12T14:05:05.335Z,98800.53
2023-04-12T14:07:33.931Z,98800.22
2023-04-12T14:10:05.652Z,98804.75
2023-04-12T14:12:34.099Z,98797.94
2023-04-12T14:15:04.664Z,98824.91
2023-04-12T14:17:33.124Z,98851.34
2023-04-12T14:20:01.000Z,98864.97
2023-04-12T14:22:28.763Z,98870.06
2023-04-12T14:24:56.419Z,98887.81
2023-04-12T14:27:24.362Z,98905.06
2023-04-12T14:29:52.648Z,98912.25
2023-04-12T14:32:20.471Z,98916.69
2023-04-12T14:34:48.458Z,98900.56
2023-04-12T14:37:18.031Z,98901.00
2023-04-12T14:39:45.919Z,98903.59
2023-04-12T14:42:13.802Z,98906.59
2023-04-12T14:44:45.374Z,98898.28
2023-04-12T14:47:13.115Z,98895.84
2023-04-12T14:49:40.852Z,98909.97
2023-04-12T14:52:08.651Z,98926.38
2023-04-12T14:54:38.377Z,98942.94
2023-04-12T14:57:06.242Z,98922.50
2023-04-12T14:59:35.765Z,98923.13
2023-04-12T15:02:03.959Z,98924.47
2023-04-12T15:04:31.985Z,98914.75
2023-04-12T15:07:00.464Z,98930.69
2023-04-12T15:09:28.741Z,98930.50
2023-04-12T15:12:01.231Z,98937.94
2023-04-12T15:14:31.646Z,98928.13
2023-04-12T15:16:59.653Z,98976.34
2023-04-12T15:19:27.818Z,98973.69
2023-04-12T15:21:55.770Z,98947.66
2023-04-12T15:24:24.703Z,98955.94
2023-04-12T15:26:54.286Z,98960.09
2023-04-12T15:29:28.249Z,98951.94
2023-04-12T15:31:56.612Z,98946.72
2023-04-12T15:34:25.286Z,98948.84
2023-04-12T15:36:53.372Z,98941.78
2023-04-12T15:39:21.538Z,98944.22
2023-04-12T15:41:49.267Z,98943.72
2023-04-12T15:44:17.475Z,98935.66
2023-04-12T15:46:56.018Z,98925.94
2023-04-12T15:49:29.339Z,98920.56
2023-04-12T15:51:58.980Z,98933.00
2023-04-12T15:54:28.525Z,98938.84
2023-04-12T15:56:56.522Z,98940.44
2023-04-12T15:59:24.621Z,98921.69
2023-04-12T16:01:54.238Z,98927.53
2023-04-12T16:04:22.119Z,98954.56
2023-04-12T16:06:50.525Z,98947.50
2023-04-12T16:09:18.810Z,98947.91
2023-04-12T16:11:48.265Z,98932.75
2023-04-12T16:14:16.416Z,98933.38
2023-04-12T16:16:44.854Z,98930.22
2023-04-12T16:19:12.709Z,98928.28
2023-04-12T16:21:44.023Z,98919.13
2023-04-12T16:24:13.302Z,98929.84
2023-04-12T16:26:41.935Z,98933.28
2023-04-12T16:29:10.713Z,98926.56
2023-04-12T16:31:40.477Z,98925.47
2023-04-12T16:34:08.634Z,98931.06
2023-04-12T16:36:36.333Z,98926.19
2023-04-12T16:39:06.630Z,98929.84
2023-04-12T16:41:35.777Z,98941.69
2023-04-12T16:44:03.604Z,98942.63
2023-04-12T16:46:32.000Z,98949.13
2023-04-12T16:49:03.741Z,98946.78
2023-04-12T16:51:36.813Z,98927.75
2023-04-12T16:54:05.596Z,98925.84
2023-04-12T16:56:33.390Z,98922.66
2023-04-12T16:59:01.174Z,98919.38
2023-04-12T17:01:29.072Z,98932.91
2023-04-12T17:03:57.370Z,98933.97
2023-04-12T17:06:27.336Z,98943.31
2023-04-12T17:08:55.273Z,98946.13
2023-04-12T17:11:23.074Z,98952.56
2023-04-12T17:13:54.020Z,98957.06
2023-04-12T17:16:21.961Z,98950.38
2023-04-12T17:19:00.990Z,98961.81
2023-04-12T17:21:30.513Z,98961.44
2023-04-12T17:24:00.476Z,98975.66
2023-04-12T17:26:28.961Z,98969.81
2023-04-12T17:28:58.775Z,98979.44
2023-04-12T17:31:29.337Z,98986.53
2023-04-12T17:33:57.516Z,98989.28
2023-04-12T17:36:25.377Z,98977.63
2023-04-12T17:38:54.249Z,98976.88
2023-04-12T17:41:22.320Z,98957.63
2023-04-12T17:43:50.504Z,98968.34
2023-04-12T17:46:18.445Z,98958.94
2023-04-12T17:48:46.401Z,98954.44
2023-04-12T17:51:16.037Z,98943.72
2023-04-12T17:53:43.995Z,98944.72
2023-04-12T17:56:13.530Z,98938.50
2023-04-12T17:58:43.506Z,98937.53
2023-04-12T18:01:11.422Z,98943.22
2023-04-12T18:03:39.238Z,98946.75
2023-04-12T18:06:08.161Z,98945.91
2023-04-12T18:08:37.549Z,98947.97
2023-04-12T18:11:07.124Z,98930.31
2023-04-12T18:13:35.143Z,98940.06
2023-04-12T18:16:03.571Z,98949.78
2023-04-12T18:18:31.356Z,98950.97
2023-04-12T18:21:04.801Z,98943.84
2023-04-12T18:23:33.067Z,98961.69
2023-04-12T18:26:00.867Z,98974.22
2023-04-12T18:28:31.418Z,98980.34
2023-04-12T18:31:02.498Z,98999.31
2023-04-12T18:33:31.875Z,98999.44
2023-04-12T18:35:59.966Z,99007.47
2023-04-12T18:38:32.362Z,99004.28
2023-04-12T18:41:01.079Z,99014.00
2023-04-12T18:43:33.318Z,99003.25
2023-04-12T18:46:01.412Z,99008.69
2023-04-12T18:48:31.078Z,99007.97
2023-04-12T18:51:02.121Z,99001.00
2023-04-12T18:53:32.278Z,99021.56
2023-04-12T18:56:10.619Z,99001.13
2023-04-12T18:58:53.896Z,99014.84
2023-04-12T19:01:25.219Z,99022.66
2023-04-12T19:03:53.406Z,99030.56
2023-04-12T19:06:21.848Z,99045.78
2023-04-12T19:08:50.407Z,99052.84
2023-04-12T19:11:18.894Z,99041.63
2023-04-12T19:13:47.494Z,99061.00
2023-04-12T19:16:15.314Z,99070.72
2023-04-12T19:18:45.254Z,99076.94
2023-04-12T19:21:13.192Z,99075.22
2023-04-12T19:23:40.935Z,99077.19
2023-04-12T19:26:11.809Z,99091.06
2023-04-12T19:28:39.948Z,99099.84
2023-04-12T19:31:10.561Z,99109.56
2023-04-12T19:33:41.551Z,99117.59
2023-04-12T19:36:10.544Z,99131.00
2023-04-12T19:38:41.246Z,99127.69
2023-04-12T19:41:10.620Z,99087.75
2023-04-12T19:43:38.779Z,99117.31
2023-04-12T19:46:07.350Z,99131.25
2023-04-12T19:48:37.430Z,99140.44
2023-04-12T19:51:06.191Z,99136.72
2023-04-12T19:53:34.131Z,99132.53
2023-04-12T19:56:04.163Z,99140.00
2023-04-12T19:58:34.711Z,99138.50
2023-04-12T20:01:03.073Z,99133.81
2023-04-12T20:03:31.534Z,99134.16
2023-04-12T20:06:03.903Z,99144.06
2023-04-12T20:08:32.017Z,99153.81
2023-04-12T20:11:00.322Z,99161.09
2023-04-12T20:13:31.451Z,99164.19
2023-04-12T20:16:01.950Z,99172.34
2023-04-12T20:18:30.764Z,99159.06
2023-04-12T20:21:00.851Z,99160.22
2023-04-12T20:23:28.824Z,99169.66
2023-04-12T20:25:59.499Z,99168.91
2023-04-12T20:28:27.356Z,99160.66
2023-04-12T20:30:55.288Z,99163.19
2023-04-12T20:33:23.288Z,99175.84
2023-04-12T20:35:51.429Z,99182.16
2023-04-12T20:38:19.270Z,99182.25
2023-04-12T20:40:47.317Z,99181.69
2023-04-12T20:43:15.600Z,99196.97
2023-04-12T20:45:43.523Z,99199.13
2023-04-12T20:48:12.551Z,99206.38
2023-04-12T20:50:41.067Z,99203.06
2023-04-12T20:53:15.833Z,99202.41
2023-04-12T20:55:45.468Z,99217.59
2023-04-12T20:58:14.299Z,99220.44
2023-04-12T21:00:42.177Z,99205.78
2023-04-12T21:03:10.947Z,99218.00
2023-04-12T21:05:39.748Z,99220.13
2023-04-12T21:08:08.980Z,99230.88
2023-04-12T21:10:36.935Z,99227.16
2023-04-12T21:13:04.602Z,99220.41
2023-04-12T21:15:35.442Z,99227.28
2023-04-12T21:18:04.187Z,99228.22
2023-04-12T21:20:36.613Z,99227.28
2023-04-12T21:23:07.059Z,99244.16
2023-04-12T21:25:35.286Z,99246.28
2023-04-12T21:28:03.481Z,99238.34
2023-04-12T21:30:35.908Z,99248.28
2023-04-12T21:33:06.056Z,99235.34
2023-04-12T21:35:34.240Z,99239.59
2023-04-12T21:38:01.995Z,99250.41
2023-04-12T21:40:29.706Z,99247.91
2023-04-12T21:42:57.587Z,99253.19
2023-04-12T21:45:25.953Z,99264.16
2023-04-12T21:47:53.877Z,99278.28
2023-04-12T21:50:21.972Z,99281.34
2023-04-12T21:52:49.701Z,99302.41
2023-04-12T21:55:18.579Z,99286.56
2023-04-12T21:57:46.364Z,99302.59
2023-04-12T22:00:15.567Z,99289.47
2023-04-12T22:02:44.169Z,99290.75
2023-04-12T22:05:12.421Z,99297.25
2023-04-12T22:07:40.833Z,99287.81
2023-04-12T22:10:09.690Z,99288.03
2023-04-12T22:12:39.787Z,99293.84
2023-04-12T22:15:09.080Z,99292.00
2023-04-12T22:17:37.599Z,99294.00
2023-04-12T22:20:08.416Z,99285.44
2023-04-12T22:22:37.333Z,99284.97
2023-04-12T22:25:08.250Z,99291.06
2023-04-12T22:27:36.185Z,99286.00
2023-04-12T22:30:04.276Z,99288.66
2023-04-12T22:32:32.992Z,99281.91
2023-04-12T22:35:08.331Z,99275.72
2023-04-12T22:37:39.033Z,99274.84
2023-04-12T22:40:13.953Z,99284.84
2023-04-12T22:42:46.045Z,99284.97
2023-04-12T22:45:16.321Z,99286.03
2023-04-12T22:47:45.755Z,99290.47
2023-04-12T22:50:13.883Z,99297.44
2023-04-12T22:52:42.009Z,99292.97
2023-04-12T22:55:14.494Z,99294.78
2023-04-12T22:57:43.924Z,99291.34
2023-04-12T23:00:15.788Z,99291.34
2023-04-12T23:02:46.564Z,99273.03
2023-04-12T23:05:14.750Z,99280.84
2023-04-12T23:07:43.393Z,99283.44
2023-04-12T23:10:12.402Z,99292.22
2023-04-12T23:12:40.255Z,99286.94
2023-04-12T23:15:09.026Z,99297.56
2023-04-12T23:17:37.320Z,99302.03
2023-04-12T23:20:12.125Z,99295.06
2023-04-12T23:23:00.027Z,99305.91
2023-04-12T23:25:39.814Z,99306.59
2023-04-12T23:28:13.564Z,99297.63
2023-04-12T23:30:50.435Z,99279.22
2023-04-12T23:33:21.455Z,99281.25
2023-04-12T23:35:56.020Z,99289.81
2023-04-12T23:38:27.065Z,99290.47
2023-04-12T23:40:54.978Z,99284.56
2023-04-12T23:43:25.498Z,99279.72
2023-04-12T23:45:53.902Z,99284.00
2023-04-12T23:48:23.320Z,99289.53
2023-04-12T23:50:51.838Z,99291.44
2023-04-12T23:53:20.539Z,99290.69
2023-04-12T23:55:51.846Z,99288.28
2023-04-12T23:58:20.730Z,99290.66
